Time;durP1;ratioP1;P1;durP2;ratioP2;P2;SDS_P1;SDS_P2;PMS_P1;PMS_P2;Temp;Humidity;BMP_temperature;BMP_pressure;BME280_temperature;BME280_humidity;BME280_pressure;Samples;Min_cycle;Max_cycle;Signal;HPM_P1;HPM_P2
2023/08/02 00:02:35;;;;;;;13.10;6.95;;;;;;;;;;4388279;32;69397;-57
2023/08/02 00:05:21;;;;;;;10.07;6.35;;;;;;;;;;4385024;32;68001;-56
2023/08/02 00:08:08;;;;;;;14.02;6.97;;;;;;;;;;4400141;32;58992;-58
2023/08/02 00:10:55;;;;;;;13.23;7.35;;;;;;;;;;4385102;32;68662;-57
2023/08/02 00:13:41;;;;;;;12.80;6.72;;;;;;;;;;4377131;32;68582;-57
2023/08/02 00:16:46;;;;;;;;;;;;;;;;;;4388177;32;67342;-57
2023/08/02 00:19:51;;;;;;;12.65;7.40;;;;;;;;;;4399604;32;70665;-56
2023/08/02 00:22:38;;;;;;;12.52;7.53;;;;;;;;;;4399619;32;64610;-57
2023/08/02 00:25:25;;;;;;;13.88;7.37;;;;;;;;;;4363366;32;69708;-56
2023/08/02 00:28:12;;;;;;;11.80;7.70;;;;;;;;;;4399888;32;59637;-58
2023/08/02 00:30:58;;;;;;;11.88;7.18;;;;;;;;;;4399336;32;71865;-57
2023/08/02 00:33:46;;;;;;;11.65;6.15;;;;;;;;;;4399427;32;65031;-56
2023/08/02 00:36:32;;;;;;;12.50;6.35;;;;;;;;;;4399712;32;68066;-56
2023/08/02 00:39:19;;;;;;;8.40;5.20;;;;;;;;;;4399626;32;59753;-56
2023/08/02 00:42:06;;;;;;;7.60;4.62;;;;;;;;;;4399264;32;70468;-56
2023/08/02 00:44:53;;;;;;;9.77;5.37;;;;;;;;;;4387052;32;69287;-57
2023/08/02 00:47:40;;;;;;;9.05;5.55;;;;;;;;;;4399264;32;68122;-58
2023/08/02 00:50:29;;;;;;;12.37;5.78;;;;;;;;;;4387522;32;71900;-56
2023/08/02 00:53:16;;;;;;;9.55;5.28;;;;;;;;;;4387554;32;65441;-57
2023/08/02 00:56:03;;;;;;;12.60;6.15;;;;;;;;;;4399116;32;68532;-57
2023/08/02 00:58:49;;;;;;;10.50;6.40;;;;;;;;;;4387382;32;67514;-56
2023/08/02 01:01:37;;;;;;;8.38;4.95;;;;;;;;;;4373450;32;73792;-56
2023/08/02 01:04:23;;;;;;;10.77;6.05;;;;;;;;;;4399061;32;65583;-57
2023/08/02 01:07:16;;;;;;;10.13;5.80;;;;;;;;;;4399270;32;67606;-57
2023/08/02 01:10:59;;;;;;;10.10;5.43;;;;;;;;;;4399351;32;59992;-56
2023/08/02 01:13:50;;;;;;;9.68;5.47;;;;;;;;;;4340824;32;70266;-56
2023/08/02 01:17:13;;;;;;;12.27;6.07;;;;;;;;;;3868863;36;43469;-57
2023/08/02 01:20:03;;;;;;;9.68;5.53;;;;;;;;;;4414763;32;58969;-56
2023/08/02 01:22:51;;;;;;;9.68;5.68;;;;;;;;;;4411538;32;71643;-56
2023/08/02 01:25:40;;;;;;;12.18;6.37;;;;;;;;;;4426342;32;69633;-56
2023/08/02 01:28:27;;;;;;;12.40;6.07;;;;;;;;;;4414122;32;67566;-57
2023/08/02 01:31:18;;;;;;;8.85;5.78;;;;;;;;;;4403366;32;70494;-56
2023/08/02 01:34:05;;;;;;;11.40;5.82;;;;;;;;;;4388173;32;65024;-56
2023/08/02 01:36:52;;;;;;;12.77;6.07;;;;;;;;;;4410814;32;67180;-56
2023/08/02 01:39:39;;;;;;;8.73;5.57;;;;;;;;;;4396081;32;61188;-56
2023/08/02 01:42:25;;;;;;;11.43;5.90;;;;;;;;;;4410619;32;71982;-58
2023/08/02 01:45:12;;;;;;;10.35;6.32;;;;;;;;;;4395982;32;65707;-56
2023/08/02 01:48:01;;;;;;;8.25;5.35;;;;;;;;;;4410849;32;66753;-57
2023/08/02 01:50:47;;;;;;;12.13;5.95;;;;;;;;;;4411216;32;60076;-57
2023/08/02 01:53:34;;;;;;;9.90;5.20;;;;;;;;;;4398790;32;70419;-57
2023/08/02 01:56:22;;;;;;;11.68;5.90;;;;;;;;;;4410642;32;68541;-57
2023/08/02 01:59:11;;;;;;;11.45;5.62;;;;;;;;;;4384984;32;68131;-57
2023/08/02 02:01:58;;;;;;;6.25;4.10;;;;;;;;;;4387696;32;71536;-56
2023/08/02 02:04:45;;;;;;;9.32;5.57;;;;;;;;;;4410724;32;66376;-57
2023/08/02 02:07:31;;;;;;;9.18;5.07;;;;;;;;;;4410542;32;68366;-57
2023/08/02 02:10:18;;;;;;;6.97;4.28;;;;;;;;;;4398526;32;67631;-57
2023/08/02 02:13:04;;;;;;;;;;;;;;;;;;4398456;32;71947;-57
2023/08/02 02:15:53;;;;;;;6.90;4.40;;;;;;;;;;4410337;32;66586;-56
2023/08/02 02:18:39;;;;;;;7.65;4.62;;;;;;;;;;4398250;32;67565;-57
2023/08/02 02:21:26;;;;;;;;;;;;;;;;;;4410840;32;59744;-57
2023/08/02 02:24:12;;;;;;;8.00;4.20;;;;;;;;;;4410399;32;70387;-56
2023/08/02 02:26:59;;;;;;;6.65;4.05;;;;;;;;;;4394356;32;69254;-57
2023/08/02 02:29:46;;;;;;;6.35;4.47;;;;;;;;;;4399799;32;67206;-56
2023/08/02 02:32:33;;;;;;;16.37;5.40;;;;;;;;;;4400033;32;60275;-57
2023/08/02 02:35:19;;;;;;;;;;;;;;;;;;4366870;32;70385;-56
2023/08/02 02:38:06;;;;;;;9.38;5.20;;;;;;;;;;4399869;32;69751;-56
2023/08/02 02:40:52;;;;;;;8.43;4.45;;;;;;;;;;4377179;32;67905;-56
2023/08/02 02:43:40;;;;;;;9.90;4.65;;;;;;;;;;4374352;32;72369;-57
2023/08/02 02:46:26;;;;;;;7.32;3.70;;;;;;;;;;4377227;32;64955;-57
2023/08/02 02:49:13;;;;;;;9.07;4.62;;;;;;;;;;4399981;32;67837;-56
2023/08/02 02:51:59;;;;;;;5.43;3.85;;;;;;;;;;4399990;32;58953;-57
2023/08/02 02:54:46;;;;;;;6.43;4.62;;;;;;;;;;4399334;32;69584;-58
2023/08/02 02:57:32;;;;;;;7.87;4.82;;;;;;;;;;4399692;32;65026;-56
2023/08/02 03:00:19;;;;;;;9.40;4.82;;;;;;;;;;4399595;32;66733;-57
2023/08/02 03:03:05;;;;;;;6.78;4.68;;;;;;;;;;4387764;32;58976;-57
2023/08/02 03:05:54;;;;;;;7.60;5.10;;;;;;;;;;4399553;32;69984;-57
2023/08/02 03:08:40;;;;;;;8.02;5.25;;;;;;;;;;4387368;32;68441;-56
2023/08/02 03:11:27;;;;;;;8.55;4.95;;;;;;;;;;4399304;32;66753;-57
2023/08/02 03:14:13;;;;;;;8.50;5.05;;;;;;;;;;4387494;32;72199;-57
2023/08/02 03:17:00;;;;;;;9.20;5.18;;;;;;;;;;4398987;32;65971;-57
2023/08/02 03:19:46;;;;;;;7.10;5.10;;;;;;;;;;4387454;32;67523;-57
2023/08/02 03:22:33;;;;;;;;;;;;;;;;;;4374458;32;68297;-57
2023/08/02 03:25:19;;;;;;;7.80;4.35;;;;;;;;;;4376770;32;70761;-56
2023/08/02 03:28:06;;;;;;;8.70;4.65;;;;;;;;;;4373839;32;67036;-57
2023/08/02 03:30:56;;;;;;;;;;;;;;;;;;4387732;32;66514;-56
2023/08/02 03:33:42;;;;;;;5.18;4.45;;;;;;;;;;4377004;32;58723;-57
2023/08/02 03:36:29;;;;;;;6.85;4.50;;;;;;;;;;4386944;32;70636;-57
2023/08/02 03:39:18;;;;;;;8.00;4.25;;;;;;;;;;4386643;32;68399;-56
2023/08/02 03:42:04;;;;;;;4.22;3.10;;;;;;;;;;4399189;32;67916;-56
2023/08/02 03:44:51;;;;;;;3.92;3.00;;;;;;;;;;4399239;32;59191;-57
2023/08/02 03:47:38;;;;;;;5.30;3.12;;;;;;;;;;4398923;32;69298;-57
2023/08/02 03:50:24;;;;;;;5.50;3.72;;;;;;;;;;4384135;32;69987;-57
2023/08/02 03:53:11;;;;;;;6.70;4.03;;;;;;;;;;4387001;32;67770;-57
2023/08/02 03:55:58;;;;;;;4.45;3.10;;;;;;;;;;4373414;32;72313;-56
2023/08/02 03:58:44;;;;;;;;;;;;;;;;;;4387320;32;65983;-56
2023/08/02 04:01:31;;;;;;;8.33;3.93;;;;;;;;;;4373777;32;68636;-56
2023/08/02 04:04:17;;;;;;;6.65;2.85;;;;;;;;;;4399274;32;59259;-56
2023/08/02 04:07:04;;;;;;;6.68;2.95;;;;;;;;;;4398722;32;69701;-57
2023/08/02 04:09:51;;;;;;;6.57;3.42;;;;;;;;;;4386763;32;65781;-57
2023/08/02 04:12:37;;;;;;;8.90;3.17;;;;;;;;;;4398702;32;66727;-57
2023/08/02 04:15:24;;;;;;;5.60;3.42;;;;;;;;;;4398577;32;59038;-56
2023/08/02 04:18:11;;;;;;;5.62;3.25;;;;;;;;;;4398428;32;70140;-57
2023/08/02 04:20:59;;;;;;;5.97;3.12;;;;;;;;;;4398613;32;68765;-57
2023/08/02 04:23:47;;;;;;;6.68;3.03;;;;;;;;;;4383771;32;67650;-57
2023/08/02 04:26:34;;;;;;;5.20;3.33;;;;;;;;;;4398421;32;71513;-58
2023/08/02 04:29:21;;;;;;;;;;;;;;;;;;4387151;32;65999;-56
2023/08/02 04:32:07;;;;;;;5.50;2.80;;;;;;;;;;4386985;32;67493;-56
2023/08/02 04:36:00;;;;;;;4.10;2.67;;;;;;;;;;3847527;37;43501;-57
2023/08/02 04:38:42;;;;;;;4.60;2.78;;;;;;;;;;3847385;37;43884;-57
2023/08/02 04:41:30;;;;;;;4.40;2.90;;;;;;;;;;4409952;32;60146;-57
2023/08/02 04:44:16;;;;;;;4.47;2.80;;;;;;;;;;4410952;32;70789;-57
2023/08/02 04:47:03;;;;;;;4.32;2.90;;;;;;;;;;4409615;32;68483;-56
2023/08/02 04:49:50;;;;;;;6.60;2.97;;;;;;;;;;4410920;32;66679;-57
2023/08/02 04:52:37;;;;;;;3.15;2.60;;;;;;;;;;4409639;32;70766;-56
2023/08/02 04:55:23;;;;;;;4.22;2.85;;;;;;;;;;4410890;32;65368;-57
2023/08/02 04:58:10;;;;;;;4.10;3.17;;;;;;;;;;4398032;32;68102;-56
2023/08/02 05:01:02;;;;;;;4.00;2.92;;;;;;;;;;4410884;32;60301;-56
2023/08/02 05:03:48;;;;;;;3.92;2.87;;;;;;;;;;4410658;32;71692;-57
2023/08/02 05:06:35;;;;;;;;;;;;;;;;;;4409871;32;65981;-57
2023/08/02 05:09:22;;;;;;;6.03;3.60;;;;;;;;;;4410839;32;68154;-57
2023/08/02 05:12:08;;;;;;;6.05;3.75;;;;;;;;;;4410903;32;60412;-56
2023/08/02 05:14:56;;;;;;;6.57;4.05;;;;;;;;;;4409455;32;69425;-56
2023/08/02 05:17:43;;;;;;;6.00;3.55;;;;;;;;;;4410503;32;69363;-56
2023/08/02 05:20:33;;;;;;;7.47;4.35;;;;;;;;;;4410613;32;67687;-57
2023/08/02 05:23:19;;;;;;;6.70;3.95;;;;;;;;;;4408723;32;71493;-57
2023/08/02 05:26:07;;;;;;;6.95;3.75;;;;;;;;;;4410759;32;64500;-57
2023/08/02 05:28:53;;;;;;;9.57;4.10;;;;;;;;;;4409081;32;69307;-57
2023/08/02 05:31:41;;;;;;;9.38;5.18;;;;;;;;;;4410398;32;67912;-55
2023/08/02 05:34:27;;;;;;;19.37;6.85;;;;;;;;;;4394886;32;70666;-57
2023/08/02 05:37:14;;;;;;;14.52;6.25;;;;;;;;;;4393377;32;66070;-57
2023/08/02 05:40:01;;;;;;;9.75;5.60;;;;;;;;;;4404506;32;67562;-57
2023/08/02 05:42:48;;;;;;;14.30;6.43;;;;;;;;;;4395266;32;59123;-57
2023/08/02 05:45:34;;;;;;;14.50;7.82;;;;;;;;;;4393566;32;70071;-57
2023/08/02 05:48:21;;;;;;;16.10;8.40;;;;;;;;;;4391569;32;69429;-56
2023/08/02 05:51:07;;;;;;;;;;;;;;;;;;4384838;32;67206;-56
2023/08/02 05:53:54;;;;;;;16.58;7.62;;;;;;;;;;4383647;32;58830;-57
2023/08/02 05:56:45;;;;;;;17.02;8.50;;;;;;;;;;4384255;32;70409;-56
2023/08/02 05:59:32;;;;;;;15.35;7.90;;;;;;;;;;4372631;32;69344;-57
2023/08/02 06:02:42;;;;;;;15.73;8.73;;;;;;;;;;4383039;32;68087;-57
2023/08/02 06:05:50;;;;;;;17.58;7.93;;;;;;;;;;4372172;32;72903;-57
2023/08/02 06:08:36;;;;;;;16.58;7.80;;;;;;;;;;4383017;32;65797;-57
2023/08/02 06:11:41;;;;;;;16.20;8.43;;;;;;;;;;3847266;37;43931;-57
2023/08/02 06:14:28;;;;;;;9.85;5.70;;;;;;;;;;4409900;32;59843;-57
2023/08/02 06:17:14;;;;;;;9.18;4.93;;;;;;;;;;4409531;32;69812;-57
2023/08/02 06:20:02;;;;;;;7.80;4.30;;;;;;;;;;4399086;32;69778;-56
2023/08/02 06:22:48;;;;;;;11.10;4.75;;;;;;;;;;4410880;32;67556;-57
2023/08/02 06:25:35;;;;;;;6.55;3.85;;;;;;;;;;4410627;32;71251;-56
2023/08/02 06:28:21;;;;;;;;;;;;;;;;;;4409898;32;65767;-56
2023/08/02 06:31:08;;;;;;;5.97;3.10;;;;;;;;;;4409576;32;67297;-56
2023/08/02 06:33:59;;;;;;;6.25;3.70;;;;;;;;;;4408879;32;60436;-56
2023/08/02 06:36:46;;;;;;;5.85;3.87;;;;;;;;;;4410618;32;71538;-57
2023/08/02 06:39:53;;;;;;;4.87;3.12;;;;;;;;;;4409255;32;65645;-56
2023/08/02 06:42:44;;;;;;;6.07;3.80;;;;;;;;;;4409203;32;67274;-56
2023/08/02 06:45:34;;;;;;;6.53;3.60;;;;;;;;;;4410756;32;59305;-57
2023/08/02 06:48:32;;;;;;;6.72;3.90;;;;;;;;;;4410351;32;70437;-57
2023/08/02 06:51:22;;;;;;;4.75;2.80;;;;;;;;;;4410444;32;68760;-55
2023/08/02 06:54:12;;;;;;;4.95;2.95;;;;;;;;;;4410285;32;67135;-56
2023/08/02 06:56:58;;;;;;;7.93;3.33;;;;;;;;;;4410234;32;71760;-56
2023/08/02 06:59:45;;;;;;;5.55;3.50;;;;;;;;;;4410665;32;66155;-56
2023/08/02 07:02:34;;;;;;;6.70;3.20;;;;;;;;;;4397699;32;71049;-56
2023/08/02 07:05:23;;;;;;;5.18;3.58;;;;;;;;;;4410286;32;67821;-57
2023/08/02 07:10:48;;;;;;;3.97;2.85;;;;;;;;;;3847321;37;43822;-56
2023/08/02 07:13:36;;;;;;;3.75;2.87;;;;;;;;;;4410018;32;60945;-56
2023/08/02 07:16:22;;;;;;;3.80;2.80;;;;;;;;;;4410656;32;70109;-57
2023/08/02 07:19:09;;;;;;;7.93;3.03;;;;;;;;;;4410650;32;69154;-56
2023/08/02 07:21:56;;;;;;;4.57;3.25;;;;;;;;;;4410771;32;67118;-56
2023/08/02 07:24:43;;;;;;;3.37;2.55;;;;;;;;;;4410628;32;70793;-56
2023/08/02 07:27:29;;;;;;;3.53;2.97;;;;;;;;;;4409613;32;64980;-56
2023/08/02 07:30:16;;;;;;;4.72;2.72;;;;;;;;;;4410689;32;67490;-56
2023/08/02 07:33:02;;;;;;;;;;;;;;;;;;4410979;32;59258;-56
2023/08/02 07:35:49;;;;;;;4.43;2.87;;;;;;;;;;4409371;32;71897;-56
2023/08/02 07:38:35;;;;;;;4.20;2.65;;;;;;;;;;4397764;32;68142;-56
2023/08/02 07:41:22;;;;;;;3.62;2.58;;;;;;;;;;4409276;32;67790;-55
2023/08/02 07:44:17;;;;;;;4.12;2.50;;;;;;;;;;4410786;32;60459;-57
2023/08/02 07:47:43;;;;;;;2.17;1.98;;;;;;;;;;4410305;32;71130;-56
2023/08/02 07:50:33;;;;;;;5.47;2.95;;;;;;;;;;4410164;32;68755;-58
2023/08/02 07:53:20;;;;;;;4.40;2.92;;;;;;;;;;4410245;32;66726;-57
2023/08/02 07:56:07;;;;;;;4.35;3.17;;;;;;;;;;4410098;32;71684;-56
2023/08/02 07:58:53;;;;;;;3.75;2.60;;;;;;;;;;4410572;32;65077;-56
2023/08/02 08:01:42;;;;;;;3.95;2.70;;;;;;;;;;4410585;32;69698;-57
2023/08/02 08:04:28;;;;;;;3.97;2.90;;;;;;;;;;4410517;32;66888;-57
2023/08/02 08:07:15;;;;;;;4.57;2.50;;;;;;;;;;4408975;32;70735;-56
2023/08/02 08:10:02;;;;;;;3.33;2.60;;;;;;;;;;4408573;32;65041;-55
2023/08/02 08:12:48;;;;;;;3.90;2.70;;;;;;;;;;4409136;32;66827;-56
2023/08/02 08:15:36;;;;;;;3.72;2.95;;;;;;;;;;4409019;32;59598;-57
2023/08/02 08:18:22;;;;;;;4.37;3.03;;;;;;;;;;4408701;32;69283;-55
2023/08/02 08:21:09;;;;;;;3.55;3.08;;;;;;;;;;4403902;32;68543;-57
2023/08/02 08:23:55;;;;;;;;;;;;;;;;;;4398942;32;67545;-56
2023/08/02 08:26:42;;;;;;;3.47;2.80;;;;;;;;;;4398456;32;58660;-56
2023/08/02 08:29:28;;;;;;;3.55;2.47;;;;;;;;;;4399618;32;70852;-56
2023/08/02 08:32:16;;;;;;;4.97;2.90;;;;;;;;;;4398299;32;69057;-56
2023/08/02 08:35:03;;;;;;;6.47;5.45;;;;;;;;;;4397820;32;69616;-55
2023/08/02 08:37:52;;;;;;;5.20;2.95;;;;;;;;;;4397759;32;70242;-56
2023/08/02 08:40:39;;;;;;;3.90;3.20;;;;;;;;;;4399522;32;64979;-56
2023/08/02 08:43:29;;;;;;;3.87;2.85;;;;;;;;;;4399539;32;66956;-56
2023/08/02 08:46:15;;;;;;;4.85;3.62;;;;;;;;;;4398568;32;59278;-56
2023/08/02 08:49:03;;;;;;;4.45;2.70;;;;;;;;;;4398827;32;70800;-57
2023/08/02 08:51:51;;;;;;;3.45;2.87;;;;;;;;;;4399589;32;65760;-56
2023/08/02 08:54:38;;;;;;;3.47;2.60;;;;;;;;;;4398149;32;67755;-58
2023/08/02 08:57:25;;;;;;;3.37;2.22;;;;;;;;;;4398214;32;60522;-56
2023/08/02 09:00:13;;;;;;;4.93;2.78;;;;;;;;;;4399231;32;70845;-56
2023/08/02 09:03:00;;;;;;;4.28;3.00;;;;;;;;;;4399258;32;69193;-55
2023/08/02 09:05:47;;;;;;;1.62;1.52;;;;;;;;;;4397444;32;68623;-55
2023/08/02 09:08:44;;;;;;;5.50;3.33;;;;;;;;;;4398894;32;71066;-56
2023/08/02 09:11:31;;;;;;;4.05;2.83;;;;;;;;;;4399102;32;65507;-56
2023/08/02 09:14:18;;;;;;;4.95;3.40;;;;;;;;;;4399421;32;67666;-55
2023/08/02 09:17:05;;;;;;;3.70;3.00;;;;;;;;;;4399249;32;67758;-56
2023/08/02 09:20:07;;;;;;;3.75;2.90;;;;;;;;;;4399033;32;71243;-56
2023/08/02 09:22:54;;;;;;;4.40;3.00;;;;;;;;;;4399213;32;66016;-56
2023/08/02 09:25:41;;;;;;;4.35;3.05;;;;;;;;;;4399231;32;67690;-56
2023/08/02 09:28:28;;;;;;;3.00;2.42;;;;;;;;;;4397351;32;60220;-55
2023/08/02 09:31:18;;;;;;;4.12;2.95;;;;;;;;;;4397522;32;70728;-57
2023/08/02 09:34:16;;;;;;;3.55;2.60;;;;;;;;;;4396515;32;71340;-57
2023/08/02 09:37:02;;;;;;;3.80;3.00;;;;;;;;;;4398773;32;67934;-55
2023/08/02 09:39:51;;;;;;;3.92;2.92;;;;;;;;;;4397831;32;59680;-56
2023/08/02 09:42:38;;;;;;;3.92;2.65;;;;;;;;;;4399243;32;70872;-56
2023/08/02 09:45:32;;;;;;;5.50;3.00;;;;;;;;;;4386376;32;69906;-56
2023/08/02 09:48:18;;;;;;;5.37;3.10;;;;;;;;;;4398552;32;66923;-57
2023/08/02 09:51:07;;;;;;;3.47;3.00;;;;;;;;;;4386656;32;71867;-56
2023/08/02 09:53:55;;;;;;;4.78;3.30;;;;;;;;;;4398826;32;65657;-55
2023/08/02 09:56:42;;;;;;;4.45;3.10;;;;;;;;;;4396916;32;68068;-56
2023/08/02 09:59:32;;;;;;;3.87;3.03;;;;;;;;;;4398909;32;60367;-56
2023/08/02 10:02:24;;;;;;;4.97;3.10;;;;;;;;;;4397361;32;70747;-56
2023/08/02 10:05:14;;;;;;;4.78;2.97;;;;;;;;;;4386321;32;66678;-56
2023/08/02 10:08:01;;;;;;;4.70;3.22;;;;;;;;;;4398414;32;67508;-58
2023/08/02 10:10:49;;;;;;;3.30;2.62;;;;;;;;;;4367086;32;59988;-57
2023/08/02 10:13:38;;;;;;;4.12;3.03;;;;;;;;;;4368027;32;70536;-56
2023/08/02 10:16:25;;;;;;;4.07;2.83;;;;;;;;;;4366636;32;69306;-56
2023/08/02 10:19:14;;;;;;;;;;;;;;;;;;4356745;32;66777;-57
2023/08/02 10:22:03;;;;;;;4.45;3.00;;;;;;;;;;4368054;32;71347;-58
2023/08/02 10:24:50;;;;;;;4.40;2.80;;;;;;;;;;4367986;32;65087;-57
2023/08/02 10:27:37;;;;;;;4.12;2.72;;;;;;;;;;4356069;32;67687;-56
2023/08/02 10:30:23;;;;;;;7.32;3.20;;;;;;;;;;4367912;32;67719;-57
2023/08/02 10:33:18;;;;;;;5.40;2.83;;;;;;;;;;4366275;32;72355;-57
2023/08/02 10:36:08;;;;;;;5.32;3.10;;;;;;;;;;4366687;32;65670;-57
2023/08/02 10:38:55;;;;;;;4.62;3.30;;;;;;;;;;4367850;32;66550;-57
2023/08/02 10:41:57;;;;;;;5.68;3.50;;;;;;;;;;4368073;32;59388;-57
2023/08/02 10:44:56;;;;;;;4.80;3.22;;;;;;;;;;4366069;32;70453;-56
2023/08/02 10:47:42;;;;;;;5.03;3.25;;;;;;;;;;4366416;32;69668;-57
2023/08/02 10:50:46;;;;;;;5.87;3.58;;;;;;;;;;4366539;32;66734;-57
2023/08/02 10:53:32;;;;;;;4.70;3.28;;;;;;;;;;4366708;32;70910;-57
2023/08/02 10:56:20;;;;;;;4.65;3.60;;;;;;;;;;4366388;32;68624;-57
2023/08/02 10:59:06;;;;;;;5.32;3.50;;;;;;;;;;4366103;32;69965;-57
2023/08/02 11:02:12;;;;;;;5.80;3.67;;;;;;;;;;4366394;32;67922;-57
2023/08/02 11:04:58;;;;;;;5.53;2.90;;;;;;;;;;4367417;32;71837;-57
2023/08/02 11:08:03;;;;;;;4.45;2.80;;;;;;;;;;4355869;32;65913;-56
2023/08/02 11:10:54;;;;;;;4.30;3.10;;;;;;;;;;4384989;32;68676;-57
2023/08/02 11:13:41;;;;;;;4.18;2.90;;;;;;;;;;4398188;32;59365;-56
2023/08/02 11:16:28;;;;;;;4.78;2.87;;;;;;;;;;4385169;32;70749;-56
2023/08/02 11:19:14;;;;;;;3.90;2.55;;;;;;;;;;4385057;32;70112;-56
2023/08/02 11:22:02;;;;;;;5.25;3.40;;;;;;;;;;4397994;32;66428;-57
2023/08/02 11:24:50;;;;;;;3.62;2.85;;;;;;;;;;4396385;32;60609;-57
2023/08/02 11:27:37;;;;;;;4.80;3.30;;;;;;;;;;4397582;32;69492;-56
2023/08/02 11:30:24;;;;;;;3.45;2.60;;;;;;;;;;4397723;32;68549;-57
2023/08/02 11:33:10;;;;;;;;;;;;;;;;;;4396676;32;67549;-57
2023/08/02 11:35:56;;;;;;;;;;;;;;;;;;4396757;32;71929;-57
2023/08/02 11:38:42;;;;;;;;;;;;;;;;;;4397024;32;66236;-57
2023/08/02 11:41:29;;;;;;;;;;;;;;;;;;4398300;32;67763;-57
2023/08/02 11:44:16;;;;;;;;;;;;;;;;;;4398542;32;59997;-56
2023/08/02 11:47:02;;;;;;;;;;;;;;;;;;4397018;32;71969;-57
2023/08/02 11:49:53;;;;;;;;;;;;;;;;;;4398142;32;65855;-57
2023/08/02 11:52:39;;;;;;;;;;;;;;;;;;4386190;32;68005;-57
2023/08/02 11:55:29;;;;;;;;;;;;;;;;;;4386584;32;59310;-57
2023/08/02 11:58:38;;;;;;;;;;;;;;;;;;4399389;32;68414;-57
2023/08/02 12:01:24;;;;;;;;;;;;;;;;;;4400696;32;69397;-57
2023/08/02 12:04:11;;;;;;;;;;;;;;;;;;4400562;32;67818;-56
2023/08/02 12:06:57;;;;;;;;;;;;;;;;;;4400748;32;70887;-57
2023/08/02 12:09:45;;;;;;;;;;;;;;;;;;4400153;32;70116;-57
2023/08/02 12:12:32;;;;;;;;;;;;;;;;;;4400418;32;68468;-56
2023/08/02 12:15:19;;;;;;;;;;;;;;;;;;4400288;32;66878;-57
2023/08/02 12:18:06;;;;;;;;;;;;;;;;;;4400267;32;72035;-56
2023/08/02 12:20:52;;;;;;;;;;;;;;;;;;4400593;32;66198;-58
2023/08/02 12:23:39;;;;;;;;;;;;;;;;;;4400354;32;68189;-56
2023/08/02 12:26:28;;;;;;;;;;;;;;;;;;4400628;32;59979;-56
2023/08/02 12:29:24;;;;;;;;;;;;;;;;;;4400312;32;69208;-56
2023/08/02 12:32:10;;;;;;;;;;;;;;;;;;4398795;32;68534;-56
2023/08/02 12:35:03;;;;;;;;;;;;;;;;;;4387790;32;68331;-56
2023/08/02 12:37:50;;;;;;;;;;;;;;;;;;4400475;32;59886;-56
2023/08/02 12:40:36;;;;;;;;;;;;;;;;;;4400156;32;70146;-57
2023/08/02 12:43:23;;;;;;;;;;;;;;;;;;4400211;32;69587;-57
2023/08/02 12:46:09;;;;;;;;;;;;;;;;;;4398982;32;67830;-57
2023/08/02 12:48:56;;;;;;;;;;;;;;;;;;4399917;32;71246;-56
2023/08/02 12:51:46;;;;;;;;;;;;;;;;;;4398572;32;64860;-56
2023/08/02 12:54:36;;;;;;;;;;;;;;;;;;4388420;32;68075;-56
2023/08/02 12:57:22;;;;;;;;;;;;;;;;;;4400354;32;58806;-57
2023/08/02 13:00:11;;;;;;;;;;;;;;;;;;4398638;32;70901;-57
2023/08/02 13:02:57;;;;;;;;;;;;;;;;;;4398634;32;65468;-56
2023/08/02 13:06:18;;;;;;;;;;;;;;;;;;4387183;32;68098;-57
2023/08/02 13:09:13;;;;;;;;;;;;;;;;;;4399177;32;60897;-56
2023/08/02 13:12:00;;;;;;;;;;;;;;;;;;4399696;32;70057;-57
2023/08/02 13:14:46;;;;;;;;;;;;;;;;;;4399748;32;68541;-56
2023/08/02 13:18:17;;;;;;;;;;;;;;;;;;3847243;37;43873;-57
2023/08/02 13:21:10;;;;;;;;;;;;;;;;;;4410351;32;59729;-56
2023/08/02 13:24:18;;;;;;;;;;;;;;;;;;4411382;32;70947;-57
2023/08/02 13:27:05;;;;;;;;;;;;;;;;;;4411402;32;69482;-56
2023/08/02 13:29:51;;;;;;;;;;;;;;;;;;4411309;32;67686;-57
2023/08/02 13:32:38;;;;;;;;;;;;;;;;;;4409867;32;71818;-57
2023/08/02 13:35:24;;;;;;;;;;;;;;;;;;4411658;32;65920;-56
2023/08/02 13:38:10;;;;;;;;;;;;;;;;;;4411395;32;66370;-56
2023/08/02 13:40:57;;;;;;;;;;;;;;;;;;4409770;32;60334;-57
2023/08/02 13:43:43;;;;;;;;;;;;;;;;;;4409773;32;72321;-57
2023/08/02 13:46:29;;;;;;;;;;;;;;;;;;4412289;32;65109;-57
2023/08/02 13:49:16;;;;;;;;;;;;;;;;;;4412049;32;66727;-56
2023/08/02 13:52:02;;;;;;;;;;;;;;;;;;4398865;32;61103;-56
2023/08/02 13:54:49;;;;;;;;;;;;;;;;;;4411067;32;68988;-58
2023/08/02 13:57:39;;;;;;;;;;;;;;;;;;4410950;32;68619;-56
2023/08/02 14:01:00;;;;;;;;;;;;;;;;;;4409408;32;68828;-57
2023/08/02 14:04:11;;;;;;;;;;;;;;;;;;4411322;32;72121;-57
2023/08/02 14:06:57;;;;;;;;;;;;;;;;;;4411739;32;65107;-57
2023/08/02 14:09:44;;;;;;;;;;;;;;;;;;4414183;32;69102;-57
2023/08/02 14:12:30;;;;;;;;;;;;;;;;;;4415857;32;68134;-57
2023/08/02 14:15:30;;;;;;;;;;;;;;;;;;4414806;32;71070;-57
2023/08/02 14:18:24;;;;;;;;;;;;;;;;;;4416023;32;65373;-57
2023/08/02 14:21:10;;;;;;;;;;;;;;;;;;4412519;32;67936;-56
2023/08/02 14:23:56;;;;;;;;;;;;;;;;;;4412125;32;59843;-57
2023/08/02 14:26:42;;;;;;;;;;;;;;;;;;4409698;32;70027;-57
2023/08/02 14:29:29;;;;;;;;;;;;;;;;;;4379986;32;68742;-56
2023/08/02 14:32:15;;;;;;;;;;;;;;;;;;4389662;32;68807;-57
2023/08/02 14:35:01;;;;;;;;;;;;;;;;;;4400771;32;59017;-57
2023/08/02 14:37:48;;;;;;;;;;;;;;;;;;4400376;32;69893;-57
2023/08/02 14:40:34;;;;;;;;;;;;;;;;;;4400375;32;69237;-56
2023/08/02 14:43:21;;;;;;;;;;;;;;;;;;4400641;32;68041;-57
2023/08/02 14:46:07;;;;;;;;;;;;;;;;;;4399228;32;72219;-57
2023/08/02 14:48:53;;;;;;;;;;;;;;;;;;4400318;32;65758;-56
2023/08/02 14:51:40;;;;;;;;;;;;;;;;;;4387892;32;65095;-57
2023/08/02 14:54:26;;;;;;;;;;;;;;;;;;4400412;32;58999;-56
2023/08/02 14:57:12;;;;;;;;;;;;;;;;;;4399842;32;69994;-56
2023/08/02 14:59:59;;;;;;;;;;;;;;;;;;4400157;32;66006;-56
2023/08/02 15:02:45;;;;;;;;;;;;;;;;;;4398870;32;67639;-56
2023/08/02 15:05:31;;;;;;;;;;;;;;;;;;4400261;32;58818;-56
2023/08/02 15:08:17;;;;;;;;;;;;;;;;;;4398111;32;70333;-58
2023/08/02 15:13:44;;;;;;;;;;;;;;;;;;3847726;37;43874;-56
2023/08/02 15:16:30;;;;;;;;;;;;;;;;;;4411684;32;58786;-56
2023/08/02 15:19:17;;;;;;;;;;;;;;;;;;4385849;32;69741;-57
2023/08/02 15:22:04;;;;;;;;;;;;;;;;;;4411482;32;68718;-57
2023/08/02 15:24:50;;;;;;;;;;;;;;;;;;4411282;32;67604;-57
2023/08/02 15:27:36;;;;;;;;;;;;;;;;;;4396375;32;71938;-57
2023/08/02 15:30:22;;;;;;;;;;;;;;;;;;4396522;32;67141;-57
2023/08/02 15:33:09;;;;;;;;;;;;;;;;;;4393576;32;66869;-57
2023/08/02 15:35:57;;;;;;;;;;;;;;;;;;4396248;32;59584;-56
2023/08/02 15:38:43;;;;;;;;;;;;;;;;;;4394156;32;71469;-56
2023/08/02 15:41:31;;;;;;;;;;;;;;;;;;4394521;32;66288;-57
2023/08/02 15:44:18;;;;;;;;;;;;;;;;;;4395910;32;67565;-56
2023/08/02 15:47:04;;;;;;;;;;;;;;;;;;4396067;32;59652;-57
2023/08/02 15:49:51;;;;;;;;;;;;;;;;;;4395579;32;70177;-56
2023/08/02 15:52:37;;;;;;;;;;;;;;;;;;4394304;32;69423;-56
2023/08/02 15:55:24;;;;;;;;;;;;;;;;;;4395640;32;67907;-57
2023/08/02 15:58:10;;;;;;;;;;;;;;;;;;4395436;32;71133;-56
2023/08/02 16:00:56;;;;;;;;;;;;;;;;;;4394817;32;65401;-57
2023/08/02 16:03:43;;;;;;;;;;;;;;;;;;4395530;32;69430;-55
2023/08/02 16:06:30;;;;;;;;;;;;;;;;;;4383418;32;67892;-56
2023/08/02 16:09:16;;;;;;;;;;;;;;;;;;4395385;32;71901;-57
2023/08/02 16:12:03;;;;;;;;;;;;;;;;;;4395154;32;65377;-56
2023/08/02 16:14:49;;;;;;;;;;;;;;;;;;4394083;32;66867;-56
2023/08/02 16:17:35;;;;;;;;;;;;;;;;;;4395755;32;59823;-56
2023/08/02 16:20:22;;;;;;;;;;;;;;;;;;4395291;32;70482;-56
2023/08/02 16:23:08;;;;;;;;;;;;;;;;;;4391244;32;69217;-58
2023/08/02 16:25:55;;;;;;;;;;;;;;;;;;4385350;32;67977;-57
2023/08/02 16:28:42;;;;;;;;;;;;;;;;;;4385471;32;59055;-57
2023/08/02 16:31:28;;;;;;;;;;;;;;;;;;4384839;32;69534;-57
2023/08/02 16:34:15;;;;;;;;;;;;;;;;;;4384847;32;69280;-57
2023/08/02 16:37:02;;;;;;;;;;;;;;;;;;4383840;32;68031;-57
2023/08/02 16:39:48;;;;;;;;;;;;;;;;;;4372972;32;71431;-57
2023/08/02 16:42:35;;;;;;;;;;;;;;;;;;4385206;32;66130;-56
2023/08/02 16:45:21;;;;;;;;;;;;;;;;;;4385112;32;67734;-57
2023/08/02 16:48:08;;;;;;;;;;;;;;;;;;4384996;32;59781;-56
2023/08/02 16:50:54;;;;;;;;;;;;;;;;;;4383451;32;70124;-57
2023/08/02 16:53:41;;;;;;;;;;;;;;;;;;4384880;32;66063;-57
2023/08/02 16:56:27;;;;;;;;;;;;;;;;;;4384782;32;67083;-57
2023/08/02 16:59:13;;;;;;;;;;;;;;;;;;4383922;32;59557;-56
2023/08/02 17:01:59;;;;;;;;;;;;;;;;;;4384601;32;68794;-56
2023/08/02 17:04:45;;;;;;;;;;;;;;;;;;4384601;32;68515;-56
2023/08/02 17:07:32;;;;;;;;;;;;;;;;;;4384609;32;66942;-56
2023/08/02 17:10:18;;;;;;;;;;;;;;;;;;4384513;32;71852;-56
2023/08/02 17:13:05;;;;;;;;;;;;;;;;;;4382385;32;66469;-57
2023/08/02 17:15:51;;;;;;;;;;;;;;;;;;4372223;32;68904;-56
2023/08/02 17:18:37;;;;;;;;;;;;;;;;;;4383269;32;67788;-56
2023/08/02 17:21:24;;;;;;;;;;;;;;;;;;4382570;32;72292;-57
2023/08/02 17:24:11;;;;;;;;;;;;;;;;;;4384497;32;66618;-56
2023/08/02 17:26:57;;;;;;;;;;;;;;;;;;4383216;32;67628;-57
2023/08/02 17:29:43;;;;;;;;;;;;;;;;;;4384535;32;59246;-57
2023/08/02 17:32:29;;;;;;;;;;;;;;;;;;4384216;32;70425;-57
2023/08/02 17:35:16;;;;;;;;;;;;;;;;;;4371059;32;69875;-57
2023/08/02 17:38:03;;;;;;;;;;;;;;;;;;4382455;32;69011;-58
2023/08/02 17:40:50;;;;;;;;;;;;;;;;;;4384756;32;59606;-55
2023/08/02 17:43:36;;;;;;;;;;;;;;;;;;4384331;32;69752;-56
2023/08/02 17:46:23;;;;;;;;;;;;;;;;;;4384157;32;69354;-56